createdAt,value
2019-02-18T00:02:06.103Z,101576.80
2019-02-18T00:04:36.749Z,101579.17
2019-02-18T00:07:14.137Z,101578.96
2019-02-18T00:09:39.552Z,101587.88
2019-02-18T00:12:10.192Z,101584.44
2019-02-18T00:14:40.819Z,101583.31
2019-02-18T00:17:11.413Z,101585.42
2019-02-18T00:19:42.037Z,101577.17
2019-02-18T00:22:12.624Z,101576.35
2019-02-18T00:24:43.228Z,101580.20
2019-02-18T00:27:14.020Z,101577.20
2019-02-18T00:29:44.598Z,101578.17
2019-02-18T00:32:15.176Z,101575.86
2019-02-18T00:34:45.983Z,101579.53
2019-02-18T00:37:24.234Z,101575.03
2019-02-18T00:39:48.828Z,101579.27
2019-02-18T00:42:19.427Z,101577.84
2019-02-18T00:44:49.959Z,101566.09
2019-02-18T00:47:20.506Z,101567.22
2019-02-18T00:49:51.259Z,101573.91
2019-02-18T00:52:21.813Z,101571.44
2019-02-18T00:54:52.375Z,101570.58
2019-02-18T00:57:23.072Z,101574.91
2019-02-18T00:59:53.643Z,101573.60
2019-02-18T01:02:24.271Z,101574.31
2019-02-18T01:04:54.874Z,101570.90
2019-02-18T01:07:34.444Z,101573.53
2019-02-18T01:09:57.967Z,101577.13
2019-02-18T01:12:31.861Z,101572.63
2019-02-18T01:15:02.401Z,101574.87
2019-02-18T01:17:33.062Z,101576.17
2019-02-18T01:20:03.709Z,101571.06
2019-02-18T01:22:34.314Z,101571.33
2019-02-18T01:25:05.381Z,101571.59
2019-02-18T01:27:36.112Z,101569.37
2019-02-18T01:30:08.996Z,101569.37
2019-02-18T01:32:39.575Z,101575.75
2019-02-18T01:35:10.856Z,101563.86
2019-02-18T01:37:45.765Z,101567.05
2019-02-18T01:40:14.813Z,101573.27
2019-02-18T01:42:45.475Z,101558.73
2019-02-18T01:45:16.151Z,101568.67
2019-02-18T01:47:46.792Z,101563.87
2019-02-18T01:50:17.474Z,101574.03
2019-02-18T01:52:48.134Z,101570.19
2019-02-18T01:55:18.716Z,101564.52
2019-02-18T01:57:49.483Z,101552.80
2019-02-18T02:00:20.244Z,101551.89
2019-02-18T02:02:50.801Z,101551.16
2019-02-18T02:05:21.479Z,101553.33
2019-02-18T02:07:56.253Z,101557.75
2019-02-18T02:10:24.422Z,101550.73
2019-02-18T02:13:27.909Z,101543.66
2019-02-18T02:15:59.546Z,101540.80
2019-02-18T02:18:30.173Z,101542.48
2019-02-18T02:21:00.886Z,101545.75
2019-02-18T02:23:31.471Z,101543.25
2019-02-18T02:26:02.087Z,101544.93
2019-02-18T02:28:32.960Z,101546.11
2019-02-18T02:31:03.652Z,101548.00
2019-02-18T02:33:34.215Z,101552.97
2019-02-18T02:36:04.990Z,101551.62
2019-02-18T02:38:35.641Z,101548.34
2019-02-18T02:41:06.164Z,101554.33
2019-02-18T02:43:36.747Z,101547.59
2019-02-18T02:46:07.378Z,101553.38
2019-02-18T02:48:37.948Z,101548.84
2019-02-18T02:51:08.543Z,101550.64
2019-02-18T02:53:39.310Z,101539.88
2019-02-18T02:56:09.857Z,101541.66
2019-02-18T02:58:40.463Z,101549.47
2019-02-18T03:01:11.058Z,101542.54
2019-02-18T03:03:41.589Z,101542.29
2019-02-18T03:06:12.167Z,101542.54
2019-02-18T03:08:42.739Z,101543.45
2019-02-18T03:11:13.294Z,101546.45
2019-02-18T03:13:43.857Z,101543.62
2019-02-18T03:16:14.456Z,101541.33
2019-02-18T03:18:44.996Z,101535.56
2019-02-18T03:21:15.583Z,101546.04
2019-02-18T03:23:46.195Z,101538.91
2019-02-18T03:26:16.831Z,101540.56
2019-02-18T03:29:55.982Z,101547.38
2019-02-18T03:32:26.636Z,101544.33
2019-02-18T03:34:57.218Z,101534.55
2019-02-18T03:37:27.821Z,101542.46
2019-02-18T03:39:58.361Z,101537.83
2019-02-18T03:42:28.952Z,101538.80
2019-02-18T03:44:59.492Z,101536.53
2019-02-18T03:47:30.037Z,101530.60
2019-02-18T03:50:00.623Z,101535.23
2019-02-18T03:52:31.180Z,101531.66
2019-02-18T03:55:01.930Z,101523.75
2019-02-18T03:57:32.666Z,101528.09
2019-02-18T04:00:03.370Z,101523.95
2019-02-18T04:02:52.994Z,101527.38
2019-02-18T04:05:23.463Z,101517.34
2019-02-18T04:07:53.954Z,101523.84
2019-02-18T04:10:24.429Z,101518.06
2019-02-18T04:12:54.966Z,101515.02
2019-02-18T04:15:25.470Z,101516.77
2019-02-18T04:17:55.954Z,101519.36
2019-02-18T04:20:26.517Z,101523.51
2019-02-18T04:22:57.036Z,101518.45
2019-02-18T04:25:27.515Z,101526.83
2019-02-18T04:27:58.066Z,101520.59
2019-02-18T04:30:28.641Z,101530.78
2019-02-18T04:32:59.127Z,101538.44
2019-02-18T04:35:29.649Z,101541.44
2019-02-18T04:38:00.152Z,101537.48
2019-02-18T04:40:30.645Z,101529.14
2019-02-18T04:43:01.147Z,101528.73
2019-02-18T04:45:31.671Z,101531.94
2019-02-18T04:48:02.157Z,101536.06
2019-02-18T04:50:32.812Z,101533.27
2019-02-18T04:53:03.415Z,101529.63
2019-02-18T04:55:34.126Z,101521.09
2019-02-18T04:58:06.185Z,101522.78
2019-02-18T05:00:36.954Z,101524.38
2019-02-18T05:03:07.512Z,101521.31
2019-02-18T05:05:38.143Z,101521.92
2019-02-18T05:08:08.747Z,101518.88
2019-02-18T05:10:39.424Z,101520.30
2019-02-18T05:13:09.934Z,101519.69
2019-02-18T05:15:40.803Z,101517.44
2019-02-18T05:18:11.483Z,101513.39
2019-02-18T05:20:42.012Z,101512.83
2019-02-18T05:23:12.586Z,101512.60
2019-02-18T05:25:43.225Z,101506.00
2019-02-18T05:28:13.699Z,101512.89
2019-02-18T05:30:44.185Z,101511.11
2019-02-18T05:33:14.761Z,101508.99
2019-02-18T05:35:45.286Z,101508.55
2019-02-18T05:38:15.787Z,101520.70
2019-02-18T05:40:46.321Z,101515.55
2019-02-18T05:43:16.837Z,101518.91
2019-02-18T05:45:47.416Z,101520.50
2019-02-18T05:48:17.922Z,101522.05
2019-02-18T05:50:48.501Z,101525.22
2019-02-18T05:53:19.004Z,101524.73
2019-02-18T05:55:49.554Z,101522.95
2019-02-18T05:58:20.089Z,101515.63
2019-02-18T06:00:50.650Z,101513.12
2019-02-18T06:03:21.166Z,101510.75
2019-02-18T06:05:51.771Z,101514.74
2019-02-18T06:08:22.293Z,101507.95
2019-02-18T06:10:52.820Z,101510.38
2019-02-18T06:13:23.281Z,101508.88
2019-02-18T06:15:53.838Z,101515.13
2019-02-18T06:18:24.376Z,101515.50
2019-02-18T06:20:54.922Z,101522.88
2019-02-18T06:23:25.621Z,101522.48
2019-02-18T06:25:56.134Z,101521.18
2019-02-18T06:28:26.700Z,101517.23
2019-02-18T06:30:57.241Z,101520.96
2019-02-18T06:33:28.483Z,101522.27
2019-02-18T06:35:59.212Z,101519.96
2019-02-18T06:38:29.779Z,101529.02
2019-02-18T06:41:00.381Z,101529.19
2019-02-18T06:43:31.074Z,101531.70
2019-02-18T06:46:26.869Z,101534.09
2019-02-18T06:49:05.177Z,101536.08
2019-02-18T06:51:35.711Z,101536.13
2019-02-18T06:54:06.317Z,101537.98
2019-02-18T06:57:11.089Z,101536.48
2019-02-18T06:59:45.646Z,101540.38
2019-02-18T07:02:50.554Z,101542.97
2019-02-18T07:05:43.879Z,101552.16
2019-02-18T07:08:21.054Z,101546.89
2019-02-18T07:11:01.143Z,101547.72
2019-02-18T07:13:31.751Z,101546.71
2019-02-18T07:16:02.219Z,101548.44
2019-02-18T07:18:32.743Z,101547.39
2019-02-18T07:21:03.922Z,101553.58
2019-02-18T07:23:34.790Z,101552.77
2019-02-18T07:26:05.469Z,101552.63
2019-02-18T07:28:36.133Z,101549.83
2019-02-18T07:31:18.687Z,101554.52
2019-02-18T07:33:49.447Z,101554.42
2019-02-18T07:36:23.083Z,101552.59
2019-02-18T07:38:54.202Z,101546.56
2019-02-18T07:41:25.371Z,101541.45
2019-02-18T07:43:56.188Z,101542.08
2019-02-18T07:46:27.063Z,101540.04
2019-02-18T07:48:58.569Z,101542.78
2019-02-18T07:51:29.467Z,101549.47
2019-02-18T07:54:00.353Z,101543.97
2019-02-18T07:56:31.087Z,101539.13
2019-02-18T07:59:02.233Z,101538.31
2019-02-18T08:01:32.788Z,101553.00
2019-02-18T08:04:03.371Z,101546.22
2019-02-18T08:06:37.260Z,101544.34
2019-02-18T08:09:08.667Z,101543.12
2019-02-18T08:11:39.192Z,101544.88
2019-02-18T08:14:09.698Z,101540.09
2019-02-18T08:16:40.310Z,101542.69
2019-02-18T08:19:10.901Z,101546.72
2019-02-18T08:21:41.430Z,101546.73
2019-02-18T08:24:14.837Z,101541.73
2019-02-18T08:26:45.373Z,101551.25
2019-02-18T08:29:15.903Z,101549.03
2019-02-18T08:31:46.525Z,101553.23
2019-02-18T08:34:17.133Z,101549.31
2019-02-18T08:36:47.761Z,101557.34
2019-02-18T08:39:18.321Z,101553.60
2019-02-18T08:41:48.823Z,101551.80
2019-02-18T08:44:19.335Z,101542.25
2019-02-18T08:46:49.909Z,101548.05
2019-02-18T08:49:20.484Z,101539.39
2019-02-18T08:51:51.013Z,101537.28
2019-02-18T08:54:21.656Z,101530.19
2019-02-18T08:56:52.218Z,101529.37
2019-02-18T08:59:22.785Z,101528.87
2019-02-18T09:01:53.338Z,101525.00
2019-02-18T09:04:23.892Z,101527.02
2019-02-18T09:06:54.417Z,101531.57
2019-02-18T09:09:25.015Z,101531.78
2019-02-18T09:11:55.511Z,101532.36
2019-02-18T09:14:26.080Z,101534.19
2019-02-18T09:16:56.713Z,101530.35
2019-02-18T09:19:27.228Z,101529.44
2019-02-18T09:22:19.721Z,101525.59
2019-02-18T09:24:56.926Z,101515.75
2019-02-18T09:27:27.413Z,101521.57
2019-02-18T09:29:57.915Z,101518.47
2019-02-18T09:32:28.502Z,101519.56
2019-02-18T09:35:02.109Z,101512.32
2019-02-18T09:37:31.372Z,101504.40
2019-02-18T09:40:01.910Z,101501.83
2019-02-18T09:42:32.599Z,101504.18
2019-02-18T09:45:03.136Z,101506.50
2019-02-18T09:47:54.320Z,101498.88
2019-02-18T09:50:28.871Z,101503.12
2019-02-18T09:52:59.543Z,101489.59
2019-02-18T09:55:30.177Z,101491.48
2019-02-18T09:58:00.917Z,101487.66
2019-02-18T10:00:31.531Z,101482.48
2019-02-18T10:03:02.036Z,101486.83
2019-02-18T10:05:32.540Z,101470.60
2019-02-18T10:08:03.124Z,101478.25
2019-02-18T10:10:33.604Z,101471.72
2019-02-18T10:13:04.201Z,101473.14
2019-02-18T10:15:34.687Z,101467.34
2019-02-18T10:18:05.219Z,101470.80
2019-02-18T10:20:35.717Z,101465.22
2019-02-18T10:23:06.239Z,101466.55
2019-02-18T10:25:36.732Z,101465.55
2019-02-18T10:28:07.311Z,101464.79
2019-02-18T10:30:37.848Z,101467.88
2019-02-18T10:33:08.326Z,101463.83
2019-02-18T10:35:38.788Z,101465.91
2019-02-18T10:38:09.401Z,101466.92
2019-02-18T10:40:39.828Z,101467.57
2019-02-18T10:43:10.313Z,101461.94
2019-02-18T10:45:40.846Z,101450.48
2019-02-18T10:48:11.347Z,101455.59
2019-02-18T10:50:42.270Z,101442.41
2019-02-18T10:53:12.749Z,101438.25
2019-02-18T10:55:43.258Z,101434.20
2019-02-18T10:58:13.740Z,101432.97
2019-02-18T11:00:44.233Z,101440.67
2019-02-18T11:03:14.745Z,101441.08
2019-02-18T11:05:45.383Z,101437.16
2019-02-18T11:08:15.860Z,101429.41
2019-02-18T11:10:46.406Z,101423.42
2019-02-18T11:13:16.894Z,101415.75
2019-02-18T11:15:47.440Z,101410.22
2019-02-18T11:18:17.914Z,101401.46
2019-02-18T11:20:48.385Z,101401.81
2019-02-18T11:23:18.959Z,101389.91
2019-02-18T11:25:49.626Z,101385.45
2019-02-18T11:28:20.974Z,101387.02
2019-02-18T11:30:51.496Z,101382.28
2019-02-18T11:33:21.977Z,101381.80
2019-02-18T11:35:52.463Z,101379.12
2019-02-18T11:38:22.996Z,101376.72
2019-02-18T11:40:53.501Z,101372.64
2019-02-18T11:43:23.974Z,101365.28
2019-02-18T11:45:54.489Z,101369.18
2019-02-18T11:48:24.988Z,101359.55
2019-02-18T11:50:55.775Z,101367.86
2019-02-18T11:53:26.319Z,101359.61
2019-02-18T11:55:56.787Z,101356.53
2019-02-18T11:58:27.274Z,101358.59
2019-02-18T12:00:58.613Z,101355.41
2019-02-18T12:03:29.288Z,101352.41
2019-02-18T12:05:59.696Z,101354.53
2019-02-18T12:08:30.240Z,101352.88
2019-02-18T12:11:00.754Z,101347.93
2019-02-18T12:13:31.215Z,101347.91
2019-02-18T12:16:01.805Z,101348.76
2019-02-18T12:18:32.493Z,101346.73
2019-02-18T12:21:03.026Z,101339.25
2019-02-18T12:23:33.542Z,101332.23
2019-02-18T12:26:04.035Z,101329.17
2019-02-18T12:28:39.154Z,101317.28
2019-02-18T12:31:10.056Z,101316.86
2019-02-18T12:33:40.465Z,101311.34
2019-02-18T12:36:10.985Z,101306.03
2019-02-18T12:38:41.477Z,101305.69
2019-02-18T12:41:11.944Z,101291.53
2019-02-18T12:43:42.502Z,101297.09
2019-02-18T12:46:15.664Z,101291.55
2019-02-18T12:48:45.247Z,101288.26
2019-02-18T12:51:15.784Z,101290.78
2019-02-18T12:53:46.518Z,101283.50
2019-02-18T12:56:17.078Z,101286.12
2019-02-18T12:58:54.413Z,101280.25
2019-02-18T13:01:20.235Z,101273.45
2019-02-18T13:03:50.713Z,101283.05
2019-02-18T13:06:21.216Z,101282.14
2019-02-18T13:08:51.680Z,101276.69
2019-02-18T13:11:22.169Z,101270.33
2019-02-18T13:13:53.002Z,101269.44
2019-02-18T13:16:23.470Z,101264.95
2019-02-18T13:18:53.957Z,101265.22
2019-02-18T13:21:24.474Z,101259.48
2019-02-18T13:23:55.656Z,101252.19
2019-02-18T13:26:26.164Z,101252.02
2019-02-18T13:28:57.054Z,101245.16
2019-02-18T13:31:27.535Z,101245.88
2019-02-18T13:33:58.010Z,101240.11
2019-02-18T13:36:28.594Z,101229.14
2019-02-18T13:38:59.086Z,101232.75
2019-02-18T13:41:29.546Z,101230.14
2019-02-18T13:44:00.016Z,101229.66
2019-02-18T13:46:30.576Z,101227.77
2019-02-18T13:49:01.052Z,101229.72
2019-02-18T13:51:31.607Z,101220.19
2019-02-18T13:54:02.040Z,101217.48
2019-02-18T13:56:32.798Z,101215.04
2019-02-18T13:59:03.356Z,101220.22
2019-02-18T14:01:33.982Z,101212.44
2019-02-18T14:04:04.465Z,101213.79
2019-02-18T14:06:35.898Z,101211.17
2019-02-18T14:09:07.161Z,101209.64
2019-02-18T14:11:37.727Z,101214.22
2019-02-18T14:14:08.256Z,101209.78
2019-02-18T14:16:38.754Z,101210.89
2019-02-18T14:19:09.282Z,101219.09
2019-02-18T14:21:39.794Z,101220.84
2019-02-18T14:24:10.484Z,101216.25
2019-02-18T14:26:40.939Z,101214.45
2019-02-18T14:29:12.122Z,101208.35
2019-02-18T14:31:42.590Z,101209.48
2019-02-18T14:34:13.153Z,101211.86
2019-02-18T14:36:44.085Z,101210.47
2019-02-18T14:39:22.720Z,101202.09
2019-02-18T14:41:53.252Z,101207.10
2019-02-18T14:44:24.194Z,101210.69
2019-02-18T14:46:54.635Z,101205.89
2019-02-18T14:49:25.470Z,101200.44
2019-02-18T14:51:56.035Z,101197.34
2019-02-18T14:54:26.626Z,101195.58
2019-02-18T14:56:57.178Z,101193.88
2019-02-18T14:59:27.630Z,101196.63
2019-02-18T15:01:58.547Z,101192.08
2019-02-18T15:04:29.069Z,101182.87
2019-02-18T15:06:59.527Z,101185.67
2019-02-18T15:09:30.012Z,101184.01
2019-02-18T15:12:00.561Z,101185.34
2019-02-18T15:14:31.119Z,101181.42
2019-02-18T15:17:01.628Z,101174.74
2019-02-18T15:19:32.157Z,101170.87
2019-02-18T15:22:02.625Z,101175.94
2019-02-18T15:24:33.154Z,101175.70
2019-02-18T15:27:03.687Z,101169.98
2019-02-18T15:29:34.464Z,101166.58
2019-02-18T15:32:05.053Z,101159.53
2019-02-18T15:34:35.609Z,101157.21
2019-02-18T15:37:06.075Z,101157.07
2019-02-18T15:39:36.614Z,101153.32
2019-02-18T15:42:07.120Z,101154.50
2019-02-18T15:44:37.664Z,101148.52
2019-02-18T15:47:08.208Z,101145.86
2019-02-18T15:49:38.901Z,101144.80
2019-02-18T15:52:09.992Z,101140.77
2019-02-18T15:54:40.474Z,101152.21
2019-02-18T15:57:10.997Z,101146.02
2019-02-18T15:59:41.431Z,101144.40
2019-02-18T16:02:11.907Z,101138.64
2019-02-18T16:04:42.598Z,101132.36
2019-02-18T16:07:13.186Z,101124.63
2019-02-18T16:09:44.090Z,101119.91
2019-02-18T16:12:14.932Z,101125.08
2019-02-18T16:14:45.405Z,101127.14
2019-02-18T16:17:15.909Z,101121.16
2019-02-18T16:19:46.515Z,101113.86
2019-02-18T16:22:17.091Z,101114.63
2019-02-18T16:24:47.701Z,101115.59
2019-02-18T16:27:18.304Z,101120.13
2019-02-18T16:29:48.872Z,101119.23
2019-02-18T16:32:19.378Z,101114.83
2019-02-18T16:34:49.909Z,101118.84
2019-02-18T16:37:20.780Z,101120.95
2019-02-18T16:39:51.318Z,101121.18
2019-02-18T16:42:21.844Z,101124.45
2019-02-18T16:44:52.633Z,101120.05
2019-02-18T16:47:23.159Z,101119.78
2019-02-18T16:49:53.997Z,101118.84
2019-02-18T16:52:24.614Z,101114.98
2019-02-18T16:54:55.150Z,101116.31
2019-02-18T16:57:25.740Z,101115.92
2019-02-18T16:59:56.236Z,101111.72
2019-02-18T17:02:46.250Z,101113.85
2019-02-18T17:05:16.777Z,101122.57
2019-02-18T17:07:47.296Z,101123.02
2019-02-18T17:10:17.913Z,101116.75
2019-02-18T17:12:48.805Z,101116.13
2019-02-18T17:15:19.348Z,101103.62
2019-02-18T17:17:49.849Z,101108.86
2019-02-18T17:20:20.350Z,101113.45
2019-02-18T17:22:50.907Z,101114.31
2019-02-18T17:25:21.479Z,101109.88
2019-02-18T17:27:51.966Z,101103.96
2019-02-18T17:30:22.482Z,101112.30
2019-02-18T17:32:53.051Z,101101.47
2019-02-18T17:35:23.605Z,101092.79
2019-02-18T17:37:54.127Z,101094.36
2019-02-18T17:40:25.112Z,101093.33
2019-02-18T17:42:55.649Z,101100.23
2019-02-18T17:45:26.170Z,101091.73
2019-02-18T17:47:56.943Z,101086.51
2019-02-18T17:50:27.504Z,101080.93
2019-02-18T17:52:58.246Z,101081.00
2019-02-18T17:55:28.808Z,101076.38
2019-02-18T17:57:59.319Z,101076.14
2019-02-18T18:00:31.811Z,101070.03
2019-02-18T18:03:02.395Z,101066.09
2019-02-18T18:05:32.926Z,101064.56
2019-02-18T18:08:03.870Z,101062.84
2019-02-18T18:10:34.498Z,101056.88
2019-02-18T18:13:05.139Z,101052.91
2019-02-18T18:15:35.672Z,101052.30
2019-02-18T18:18:06.235Z,101054.28
2019-02-18T18:20:37.287Z,101051.13
2019-02-18T18:23:07.888Z,101049.12
2019-02-18T18:25:38.491Z,101044.74
2019-02-18T18:28:09.079Z,101042.43
2019-02-18T18:30:39.746Z,101039.34
2019-02-18T18:33:10.277Z,101039.45
2019-02-18T18:35:40.815Z,101038.41
2019-02-18T18:38:13.208Z,101034.02
2019-02-18T18:40:43.756Z,100995.78
2019-02-18T18:43:14.344Z,101039.38
2019-02-18T18:45:44.872Z,101039.38
2019-02-18T18:48:15.538Z,101034.14
2019-02-18T18:50:46.103Z,101037.30
2019-02-18T18:53:16.735Z,101040.69
2019-02-18T18:55:47.367Z,101035.05
2019-02-18T18:58:17.993Z,101038.83
2019-02-18T19:00:49.148Z,101041.33
2019-02-18T19:03:19.872Z,101035.16
2019-02-18T19:05:50.466Z,101042.27
2019-02-18T19:08:21.114Z,101040.13
2019-02-18T19:10:51.658Z,101039.55
2019-02-18T19:13:22.519Z,101042.00
2019-02-18T19:15:53.107Z,101041.61
2019-02-18T19:18:23.664Z,101033.39
2019-02-18T19:20:54.187Z,101031.88
2019-02-18T19:23:24.795Z,101030.48
2019-02-18T19:25:55.593Z,101031.60
2019-02-18T19:28:26.180Z,101035.22
2019-02-18T19:30:56.802Z,101027.63
2019-02-18T19:33:27.437Z,101034.27
2019-02-18T19:35:58.007Z,101031.98
2019-02-18T19:38:28.685Z,101031.20
2019-02-18T19:40:59.245Z,101035.86
2019-02-18T19:43:29.858Z,101033.61
2019-02-18T19:46:00.447Z,101033.41
2019-02-18T19:48:31.005Z,101032.95
2019-02-18T19:51:01.635Z,101034.52
2019-02-18T19:53:32.193Z,101028.70
2019-02-18T19:56:02.691Z,101030.73
2019-02-18T19:58:33.283Z,101038.52
2019-02-18T20:01:03.883Z,101034.91
2019-02-18T20:03:34.525Z,101032.30
2019-02-18T20:06:05.291Z,101034.25
2019-02-18T20:08:35.845Z,101029.87
2019-02-18T20:11:06.384Z,101025.23
2019-02-18T20:13:36.967Z,101027.11
2019-02-18T20:16:07.595Z,101022.26
2019-02-18T20:18:38.432Z,101024.34
2019-02-18T20:21:09.005Z,101025.03
2019-02-18T20:23:39.641Z,101019.70
2019-02-18T20:26:10.182Z,101022.34
2019-02-18T20:28:40.776Z,101017.10
2019-02-18T20:31:11.597Z,101018.05
2019-02-18T20:33:42.154Z,101021.88
2019-02-18T20:36:12.661Z,101017.02
2019-02-18T20:38:43.275Z,101016.94
2019-02-18T20:41:13.817Z,101019.07
2019-02-18T20:43:44.657Z,101019.47
2019-02-18T20:46:15.325Z,101015.72
2019-02-18T20:48:46.731Z,101017.15
2019-02-18T20:51:17.362Z,101008.00
2019-02-18T20:53:47.850Z,101000.83
2019-02-18T20:56:18.359Z,100999.80
2019-02-18T20:58:49.024Z,101002.34
2019-02-18T21:01:19.592Z,100996.83
2019-02-18T21:03:50.182Z,100994.96
2019-02-18T21:06:20.776Z,100991.83
2019-02-18T21:08:51.328Z,100992.17
2019-02-18T21:11:22.086Z,100990.50
2019-02-18T21:13:52.796Z,100984.60
2019-02-18T21:16:23.318Z,100985.12
2019-02-18T21:18:53.868Z,100990.13
2019-02-18T21:21:24.464Z,100987.23
2019-02-18T21:23:54.966Z,100987.78
2019-02-18T21:26:25.495Z,100993.60
2019-02-18T21:28:56.063Z,100978.20
2019-02-18T21:31:26.637Z,100983.57
2019-02-18T21:33:57.114Z,100977.13
2019-02-18T21:36:27.743Z,100973.84
2019-02-18T21:38:58.304Z,100979.29
2019-02-18T21:41:28.825Z,100969.55
2019-02-18T21:43:59.407Z,100969.03
2019-02-18T21:46:30.013Z,100969.33
2019-02-18T21:49:00.578Z,100964.70
2019-02-18T21:51:31.374Z,100970.78
2019-02-18T21:54:01.958Z,100965.48
2019-02-18T21:56:32.454Z,100963.63
2019-02-18T21:59:03.048Z,100961.02
2019-02-18T22:01:33.558Z,100961.23
2019-02-18T22:04:04.154Z,100954.34
2019-02-18T22:06:34.685Z,100961.02
2019-02-18T22:09:06.699Z,100953.73
2019-02-18T22:11:37.205Z,100953.70
2019-02-18T22:14:07.706Z,100952.23
2019-02-18T22:16:38.243Z,100946.38
2019-02-18T22:19:08.946Z,100949.84
2019-02-18T22:21:39.430Z,100956.59
2019-02-18T22:24:09.984Z,100948.34
2019-02-18T22:26:40.490Z,100950.97
2019-02-18T22:29:11.099Z,100947.83
2019-02-18T22:31:41.554Z,100946.13
2019-02-18T22:34:12.332Z,100942.39
2019-02-18T22:36:42.901Z,100949.72
2019-02-18T22:39:13.419Z,100943.23
2019-02-18T22:41:43.964Z,100940.78
2019-02-18T22:44:14.406Z,100939.92
2019-02-18T22:46:44.898Z,100946.75
2019-02-18T22:49:15.359Z,100946.97
2019-02-18T22:51:45.909Z,100938.42
2019-02-18T22:54:16.372Z,100935.80
2019-02-18T22:56:46.875Z,100938.34
2019-02-18T22:59:17.391Z,100935.06
2019-02-18T23:01:48.151Z,100936.00
2019-02-18T23:04:18.637Z,100938.77
2019-02-18T23:06:49.159Z,100936.52
2019-02-18T23:09:19.654Z,100935.00
2019-02-18T23:11:50.109Z,100937.50
2019-02-18T23:14:20.577Z,100932.36
2019-02-18T23:16:51.244Z,100926.20
2019-02-18T23:19:21.703Z,100929.91
2019-02-18T23:21:52.173Z,100922.44
2019-02-18T23:24:24.083Z,100919.88
2019-02-18T23:26:54.464Z,100916.63
2019-02-18T23:29:24.957Z,100908.98
2019-02-18T23:31:55.443Z,100918.02
2019-02-18T23:34:29.446Z,100915.59
2019-02-18T23:36:59.914Z,100919.80
2019-02-18T23:39:30.368Z,100921.25
2019-02-18T23:42:00.852Z,100918.53
2019-02-18T23:44:31.341Z,100912.80
2019-02-18T23:47:01.781Z,100917.88
2019-02-18T23:49:32.274Z,100916.11
2019-02-18T23:52:02.755Z,100916.94
2019-02-18T23:54:33.254Z,100916.78
2019-02-18T23:57:03.763Z,100914.52
2019-02-18T23:59:34.299Z,100910.62
